Time;durP1;ratioP1;P1;durP2;ratioP2;P2;SDS_P1;SDS_P2;PMS_P1;PMS_P2;Temp;Humidity;BMP_temperature;BMP_pressure;BME280_temperature;BME280_humidity;BME280_pressure;Samples;Min_cycle;Max_cycle;Signal;HPM_P1;HPM_P2
2022/09/07 00:00:29;;;;;;;15.82;4.88;;;17.10;99.90;;;;;;5059937;28;20123;-42
2022/09/07 00:02:54;;;;;;;10.60;4.10;;;17.10;99.90;;;;;;5058074;28;20059;-41
2022/09/07 00:05:20;;;;;;;14.80;4.40;;;17.10;99.90;;;;;;5066897;28;20036;-43
2022/09/07 00:07:45;;;;;;;13.65;4.93;;;17.10;99.90;;;;;;5060773;28;20508;-41
2022/09/07 00:10:11;;;;;;;13.90;4.75;;;17.10;99.90;;;;;;5057311;28;20102;-39
2022/09/07 00:12:37;;;;;;;9.98;4.35;;;17.10;99.90;;;;;;5072399;28;20032;-38
2022/09/07 00:15:07;;;;;;;7.97;4.40;;;17.20;99.90;;;;;;5064441;28;20574;-40
2022/09/07 00:17:33;;;;;;;7.05;3.97;;;17.10;99.90;;;;;;5059898;28;20516;-35
2022/09/07 00:19:58;;;;;;;11.23;4.53;;;17.10;99.90;;;;;;5065959;28;20468;-34
2022/09/07 00:22:24;;;;;;;9.15;4.80;;;17.10;99.90;;;;;;5064835;28;20035;-33
2022/09/07 00:24:50;;;;;;;9.43;4.50;;;17.20;99.90;;;;;;5059362;28;20035;-38
2022/09/07 00:27:16;;;;;;;9.38;4.60;;;17.20;99.90;;;;;;5061197;28;20031;-41
2022/09/07 00:29:41;;;;;;;10.98;4.63;;;17.20;99.90;;;;;;5053852;28;20229;-42
2022/09/07 00:32:07;;;;;;;13.60;4.50;;;17.30;99.90;;;;;;5071606;28;20090;-42
2022/09/07 00:34:33;;;;;;;12.25;4.95;;;17.30;99.90;;;;;;5067069;28;20021;-42
2022/09/07 00:37:17;;;;;;;9.90;3.95;;;17.30;99.90;;;;;;5055646;28;20051;-41
2022/09/07 00:39:42;;;;;;;10.35;4.22;;;17.30;99.90;;;;;;5053324;28;20051;-38
2022/09/07 00:42:08;;;;;;;13.93;4.72;;;17.30;99.90;;;;;;5057435;28;20029;-41
2022/09/07 00:44:43;;;;;;;10.38;4.10;;;17.30;99.90;;;;;;5059869;28;20455;-41
2022/09/07 00:47:20;;;;;;;12.15;3.45;;;17.30;99.90;;;;;;5060571;28;20036;-42
2022/09/07 00:49:50;;;;;;;8.30;3.45;;;17.30;99.90;;;;;;5060160;28;20552;-42
2022/09/07 00:52:17;;;;;;;5.30;2.75;;;17.20;99.90;;;;;;5057183;28;20531;-39
2022/09/07 00:54:47;;;;;;;8.35;3.40;;;17.30;99.90;;;;;;5059182;28;20040;-39
2022/09/07 00:57:13;;;;;;;6.65;3.22;;;17.30;99.90;;;;;;5057787;28;20017;-39
2022/09/07 00:59:45;;;;;;;6.35;2.70;;;17.30;99.90;;;;;;5057559;28;20477;-42
2022/09/07 01:02:12;;;;;;;11.05;2.35;;;17.20;99.90;;;;;;5053607;28;20049;-41
2022/09/07 01:04:39;;;;;;;8.00;2.10;;;17.20;99.90;;;;;;5068383;28;20409;-45
2022/09/07 01:07:05;;;;;;;9.20;2.10;;;17.20;99.90;;;;;;5061193;28;20420;-41
2022/09/07 01:09:31;;;;;;;5.22;2.00;;;17.20;99.90;;;;;;5065717;28;20108;-40
2022/09/07 01:11:59;;;;;;;3.22;1.85;;;17.20;99.90;;;;;;5063023;28;20477;-44
2022/09/07 01:14:31;;;;;;;6.20;2.20;;;17.20;99.90;;;;;;5070562;28;20503;-43
2022/09/07 01:17:24;;;;;;;6.63;1.85;;;17.20;99.90;;;;;;5061070;28;20021;-43
2022/09/07 01:19:58;;;;;;;7.47;2.60;;;17.20;99.90;;;;;;5057956;28;20108;-38
2022/09/07 01:22:30;;;;;;;10.90;2.17;;;17.30;99.90;;;;;;5053599;28;20064;-41
2022/09/07 01:25:13;;;;;;;2.17;1.60;;;17.30;99.90;;;;;;5053189;28;20119;-44
2022/09/07 01:28:06;;;;;;;4.50;2.03;;;17.30;99.90;;;;;;5053434;28;20504;-41
2022/09/07 01:30:36;;;;;;;3.50;1.48;;;17.30;99.90;;;;;;5060364;28;20507;-43
2022/09/07 01:33:05;;;;;;;3.67;1.98;;;17.20;99.90;;;;;;5053996;28;20043;-43
2022/09/07 01:35:39;;;;;;;5.75;1.85;;;17.10;99.90;;;;;;5064037;28;20024;-44
2022/09/07 01:38:21;;;;;;;3.58;1.77;;;17.10;99.90;;;;;;5059227;28;20129;-40
2022/09/07 01:40:56;;;;;;;4.32;1.70;;;17.00;99.90;;;;;;5057471;28;20056;-45
2022/09/07 01:43:31;;;;;;;1.60;1.50;;;17.00;99.90;;;;;;5063282;28;20103;-40
2022/09/07 01:45:58;;;;;;;7.47;1.70;;;17.00;99.90;;;;;;5064526;28;20041;-39
2022/09/07 01:48:25;;;;;;;2.65;1.60;;;17.00;99.90;;;;;;5067000;28;20017;-42
2022/09/07 01:50:56;;;;;;;2.78;1.20;;;17.00;99.90;;;;;;5069055;28;20064;-42
2022/09/07 01:53:29;;;;;;;1.77;1.45;;;17.00;99.90;;;;;;5066157;28;20439;-46
2022/09/07 01:56:02;;;;;;;4.15;1.80;;;16.90;99.90;;;;;;5069357;28;20052;-43
2022/09/07 01:58:43;;;;;;;6.45;1.77;;;16.80;99.90;;;;;;5068295;28;20477;-40
2022/09/07 02:01:14;;;;;;;3.83;1.60;;;16.70;99.90;;;;;;5061676;28;20029;-41
2022/09/07 02:04:04;;;;;;;3.08;1.48;;;16.70;99.90;;;;;;5059630;28;20240;-45
2022/09/07 02:06:30;;;;;;;1.92;1.38;;;16.80;99.90;;;;;;5059842;28;20550;-48
2022/09/07 02:08:59;;;;;;;4.30;1.35;;;16.80;99.90;;;;;;5066499;28;20032;-39
2022/09/07 02:11:36;;;;;;;2.65;1.55;;;16.70;99.90;;;;;;5051437;28;20056;-42
2022/09/07 02:14:27;;;;;;;1.67;1.55;;;16.60;99.90;;;;;;5054778;28;20553;-39
2022/09/07 02:17:02;;;;;;;1.30;1.10;;;16.70;99.90;;;;;;5062160;28;20033;-42
2022/09/07 02:19:37;;;;;;;3.35;1.13;;;16.70;99.90;;;;;;5056509;28;20024;-42
2022/09/07 02:22:08;;;;;;;1.67;1.58;;;16.70;99.90;;;;;;5058680;28;20374;-42
2022/09/07 02:24:41;;;;;;;3.70;1.67;;;16.70;99.90;;;;;;5061945;28;20507;-41
2022/09/07 02:27:11;;;;;;;4.32;1.33;;;16.70;99.90;;;;;;5060573;28;20480;-35
2022/09/07 02:29:37;;;;;;;3.92;1.52;;;16.70;99.90;;;;;;5061643;28;20154;-37
2022/09/07 02:32:03;;;;;;;3.08;1.60;;;16.70;99.90;;;;;;5058445;28;20032;-35
2022/09/07 02:34:30;;;;;;;1.40;1.23;;;16.70;99.90;;;;;;5065368;28;20013;-39
2022/09/07 02:36:59;;;;;;;2.07;1.30;;;16.70;99.90;;;;;;5062879;28;20546;-38
2022/09/07 02:39:24;;;;;;;3.10;1.40;;;16.60;99.90;;;;;;5058131;28;20067;-33
2022/09/07 02:41:50;;;;;;;3.58;1.20;;;16.60;99.90;;;;;;5058491;28;20037;-36
2022/09/07 02:44:21;;;;;;;3.45;1.48;;;16.70;99.90;;;;;;5056659;28;20066;-37
2022/09/07 02:47:06;;;;;;;1.75;1.40;;;16.70;99.90;;;;;;5060082;28;20536;-35
2022/09/07 02:49:47;;;;;;;2.65;1.70;;;16.70;99.90;;;;;;5056676;28;20048;-38
2022/09/07 02:52:21;;;;;;;1.63;1.33;;;16.70;99.90;;;;;;5056355;28;20052;-36
2022/09/07 02:55:20;;;;;;;1.50;1.40;;;16.70;99.90;;;;;;5064701;28;20477;-35
2022/09/07 02:58:23;;;;;;;5.88;1.55;;;16.70;99.90;;;;;;5051166;28;20074;-37
2022/09/07 03:01:12;;;;;;;1.30;1.20;;;16.70;99.90;;;;;;5051348;28;20534;-37
2022/09/07 03:03:49;;;;;;;3.85;1.25;;;16.70;99.90;;;;;;5049772;28;20040;-33
2022/09/07 03:06:33;;;;;;;1.50;1.40;;;16.80;99.90;;;;;;5053204;28;20457;-36
2022/09/07 03:09:04;;;;;;;5.90;1.30;;;16.80;99.90;;;;;;5067203;28;20111;-33
2022/09/07 03:11:30;;;;;;;1.40;1.30;;;16.80;99.90;;;;;;5066443;28;20495;-35
2022/09/07 03:14:13;;;;;;;4.78;1.20;;;16.80;99.90;;;;;;5063431;28;20016;-32
2022/09/07 03:16:38;;;;;;;1.10;1.00;;;16.80;99.90;;;;;;5059715;28;20025;-31
2022/09/07 03:19:04;;;;;;;1.23;1.17;;;16.80;99.90;;;;;;5054292;28;20477;-41
2022/09/07 03:21:30;;;;;;;1.33;1.23;;;16.80;99.90;;;;;;5063563;28;20035;-39
2022/09/07 03:23:56;;;;;;;1.85;1.25;;;16.90;99.90;;;;;;5062438;28;20028;-35
2022/09/07 03:26:26;;;;;;;1.73;1.02;;;16.90;99.90;;;;;;5070522;28;20086;-40
2022/09/07 03:28:52;;;;;;;2.90;1.20;;;16.90;99.90;;;;;;5061964;28;20524;-39
2022/09/07 03:31:18;;;;;;;1.40;1.05;;;16.90;99.90;;;;;;5057832;28;20025;-40
2022/09/07 03:33:43;;;;;;;2.40;1.30;;;17.00;99.90;;;;;;5066341;28;20067;-40
2022/09/07 03:36:09;;;;;;;3.78;1.45;;;17.00;99.90;;;;;;5054843;28;20029;-41
2022/09/07 03:38:34;;;;;;;2.75;1.20;;;17.00;99.90;;;;;;5071971;28;20024;-40
2022/09/07 03:41:02;;;;;;;2.03;1.30;;;17.00;99.90;;;;;;5062092;28;20056;-42
2022/09/07 03:43:29;;;;;;;1.42;1.17;;;17.00;99.90;;;;;;5065343;28;20021;-34
2022/09/07 03:46:05;;;;;;;2.67;1.10;;;17.00;99.90;;;;;;5058674;28;20035;-34
2022/09/07 03:48:35;;;;;;;2.67;1.48;;;17.00;99.90;;;;;;5062824;28;20468;-37
2022/09/07 03:51:07;;;;;;;1.55;1.30;;;17.00;99.90;;;;;;5058119;28;20468;-33
2022/09/07 03:53:35;;;;;;;0.90;0.90;;;17.00;99.90;;;;;;5070135;28;20531;-32
2022/09/07 03:56:03;;;;;;;0.95;0.93;;;17.00;99.90;;;;;;5064251;28;20036;-41
2022/09/07 03:58:30;;;;;;;1.98;1.23;;;17.00;99.90;;;;;;5057878;28;20062;-38
2022/09/07 04:00:56;;;;;;;1.20;1.20;;;17.00;99.90;;;;;;5062503;28;20032;-42
2022/09/07 04:03:22;;;;;;;1.38;0.95;;;17.00;99.90;;;;;;5070161;28;20060;-36
2022/09/07 04:05:48;;;;;;;1.45;1.30;;;17.00;99.90;;;;;;5077535;28;20132;-39
2022/09/07 04:08:13;;;;;;;1.48;1.38;;;17.00;99.90;;;;;;5058766;28;20400;-40
2022/09/07 04:10:40;;;;;;;5.85;1.25;;;16.90;99.90;;;;;;5064046;28;20098;-39
2022/09/07 04:13:06;;;;;;;1.38;1.27;;;16.90;99.90;;;;;;5057551;28;20041;-39
2022/09/07 04:15:32;;;;;;;1.38;1.23;;;16.90;99.90;;;;;;5067372;28;20032;-38
2022/09/07 04:17:57;;;;;;;1.10;1.00;;;16.90;99.90;;;;;;5062428;28;20033;-37
2022/09/07 04:20:24;;;;;;;1.40;1.35;;;16.90;99.90;;;;;;5064257;28;20027;-39
2022/09/07 04:22:50;;;;;;;2.15;1.17;;;16.90;99.90;;;;;;5059777;28;20455;-38
2022/09/07 04:25:16;;;;;;;2.47;1.20;;;16.90;99.90;;;;;;5069490;28;20044;-37
2022/09/07 04:27:41;;;;;;;2.97;1.75;;;16.90;99.90;;;;;;5063856;28;20037;-38
2022/09/07 04:30:08;;;;;;;7.22;1.50;;;16.90;99.90;;;;;;5061264;28;20069;-38
2022/09/07 04:32:34;;;;;;;0.95;0.63;;;16.90;99.90;;;;;;5065684;28;20430;-41
2022/09/07 04:34:59;;;;;;;3.90;1.77;;;16.90;99.90;;;;;;5058606;28;20017;-39
2022/09/07 04:37:25;;;;;;;2.72;1.58;;;16.90;99.90;;;;;;5064832;28;20512;-40
2022/09/07 04:39:51;;;;;;;3.78;1.73;;;16.90;99.90;;;;;;5068527;28;20033;-37
2022/09/07 04:42:17;;;;;;;2.13;1.92;;;16.90;99.90;;;;;;5052841;28;20516;-38
2022/09/07 04:44:43;;;;;;;2.35;1.55;;;16.90;99.90;;;;;;5054189;28;20029;-39
2022/09/07 04:47:09;;;;;;;1.40;1.30;;;16.90;99.90;;;;;;5061801;28;20032;-30
2022/09/07 04:49:34;;;;;;;5.50;1.60;;;16.90;99.90;;;;;;5057888;28;20029;-35
2022/09/07 04:52:00;;;;;;;3.00;1.77;;;16.90;99.90;;;;;;5063579;28;20024;-31
2022/09/07 04:54:26;;;;;;;6.93;2.22;;;16.90;99.90;;;;;;5062875;28;20020;-33
2022/09/07 04:56:52;;;;;;;4.53;1.48;;;16.90;99.90;;;;;;5052997;28;20490;-32
2022/09/07 04:59:18;;;;;;;5.07;2.42;;;16.90;99.90;;;;;;5053008;28;20025;-30
2022/09/07 05:01:47;;;;;;;5.28;2.13;;;16.90;99.90;;;;;;5055613;28;20040;-34
2022/09/07 05:04:12;;;;;;;1.73;1.33;;;16.90;99.90;;;;;;5065739;28;20029;-34
2022/09/07 05:06:38;;;;;;;4.57;1.88;;;16.90;99.90;;;;;;5070343;28;20035;-32
2022/09/07 05:09:04;;;;;;;5.13;2.17;;;16.90;99.90;;;;;;5066304;28;20075;-32
2022/09/07 05:11:29;;;;;;;6.05;2.05;;;16.90;99.90;;;;;;5061824;28;20469;-32
2022/09/07 05:13:58;;;;;;;4.45;1.80;;;16.90;99.90;;;;;;5060098;28;20021;-54
2022/09/07 05:16:24;;;;;;;5.82;2.65;;;16.90;99.90;;;;;;5070744;28;20502;-33
2022/09/07 05:18:52;;;;;;;2.83;1.92;;;16.90;99.90;;;;;;5066063;28;20021;-30
2022/09/07 05:24:24;;;;;;;2.92;2.20;;;16.90;99.90;;;;;;5055201;28;20078;-33
2022/09/07 05:26:50;;;;;;;3.35;2.35;;;16.90;99.90;;;;;;5052852;28;20029;-57
2022/09/07 05:29:15;;;;;;;2.85;1.90;;;16.90;99.90;;;;;;5054691;28;20099;-31
2022/09/07 05:31:41;;;;;;;3.38;2.00;;;16.90;99.90;;;;;;5061304;28;20695;-37
2022/09/07 05:34:07;;;;;;;2.35;2.05;;;16.90;99.90;;;;;;5066069;28;20027;-36
2022/09/07 05:36:33;;;;;;;5.63;2.05;;;16.90;99.90;;;;;;5055677;28;20071;-32
2022/09/07 05:38:59;;;;;;;3.45;2.13;;;16.90;99.90;;;;;;5065573;28;20423;-33
2022/09/07 05:41:25;;;;;;;3.63;2.17;;;16.90;99.90;;;;;;5061956;28;20020;-33
2022/09/07 05:43:52;;;;;;;5.25;2.45;;;17.00;99.90;;;;;;5060803;28;20397;-37
2022/09/07 05:46:18;;;;;;;4.63;2.42;;;16.90;99.90;;;;;;5065282;28;20096;-33
2022/09/07 05:48:44;;;;;;;6.80;2.72;;;16.90;99.90;;;;;;5070984;28;20524;-33
2022/09/07 05:51:12;;;;;;;5.28;1.77;;;17.00;99.90;;;;;;5063161;28;20060;-33
2022/09/07 05:53:39;;;;;;;5.88;2.67;;;17.00;99.90;;;;;;5069382;28;20020;-30
2022/09/07 05:56:06;;;;;;;5.15;2.33;;;17.00;99.90;;;;;;5063877;28;20059;-32
2022/09/07 05:58:34;;;;;;;3.67;2.72;;;17.00;99.90;;;;;;5064154;28;20028;-32
2022/09/07 06:01:05;;;;;;;3.40;2.13;;;17.10;99.90;;;;;;5066184;28;20040;-33
2022/09/07 06:03:31;;;;;;;4.32;2.33;;;17.10;99.90;;;;;;5066421;28;20512;-32
2022/09/07 06:06:08;;;;;;;4.03;2.42;;;17.10;99.90;;;;;;5066798;28;20021;-35
2022/09/07 06:08:35;;;;;;;4.15;3.40;;;17.10;99.90;;;;;;5065555;28;20554;-36
2022/09/07 06:11:07;;;;;;;4.15;2.33;;;17.20;99.90;;;;;;5066266;28;20062;-32
2022/09/07 06:13:34;;;;;;;4.50;2.65;;;17.20;99.90;;;;;;5063388;28;20531;-38
2022/09/07 06:16:00;;;;;;;4.05;2.90;;;17.30;99.90;;;;;;5067617;28;20461;-33
2022/09/07 06:18:37;;;;;;;3.92;2.75;;;17.30;99.90;;;;;;5066549;28;20047;-49
2022/09/07 06:21:08;;;;;;;7.60;2.72;;;17.30;99.90;;;;;;5066969;28;20445;-34
2022/09/07 06:23:35;;;;;;;3.40;3.10;;;17.30;99.90;;;;;;5062716;28;20564;-40
2022/09/07 06:26:00;;;;;;;5.97;3.35;;;17.30;99.90;;;;;;5069305;28;20017;-33
2022/09/07 06:28:30;;;;;;;6.53;3.45;;;17.30;99.90;;;;;;5065257;28;20025;-30
2022/09/07 06:31:00;;;;;;;8.63;3.90;;;17.40;99.90;;;;;;5067639;28;20020;-40
2022/09/07 06:33:26;;;;;;;4.63;3.50;;;17.40;99.90;;;;;;5064599;28;20020;-40
2022/09/07 06:36:02;;;;;;;5.90;3.92;;;17.50;99.90;;;;;;5068377;28;20028;-38
2022/09/07 06:38:30;;;;;;;7.07;4.80;;;17.50;99.90;;;;;;5065493;28;20427;-39
2022/09/07 06:41:03;;;;;;;8.52;4.75;;;17.50;99.90;;;;;;5061068;28;20484;-37
2022/09/07 06:43:29;;;;;;;6.00;4.47;;;17.60;99.90;;;;;;5061061;28;20500;-39
2022/09/07 06:45:55;;;;;;;6.68;4.70;;;17.60;99.90;;;;;;5060801;28;20032;-38
2022/09/07 06:48:21;;;;;;;5.88;4.70;;;17.60;99.90;;;;;;5058853;28;20039;-39
2022/09/07 06:51:01;;;;;;;10.10;4.55;;;17.70;99.90;;;;;;5053504;28;20042;-39
2022/09/07 06:53:33;;;;;;;7.55;4.60;;;17.80;99.90;;;;;;5058452;28;20025;-39
2022/09/07 06:55:59;;;;;;;11.48;5.22;;;17.90;99.90;;;;;;5064163;28;20099;-39
2022/09/07 06:58:25;;;;;;;8.45;5.53;;;17.90;99.90;;;;;;5063079;28;20399;-40
2022/09/07 07:00:52;;;;;;;8.93;4.88;;;18.00;99.90;;;;;;5064561;28;20028;-56
2022/09/07 07:03:18;;;;;;;7.35;4.95;;;18.10;99.90;;;;;;5055838;28;22090;-39
2022/09/07 07:05:52;;;;;;;12.10;5.60;;;18.20;99.90;;;;;;5062688;28;20087;-36
2022/09/07 07:08:18;;;;;;;11.00;5.53;;;18.30;99.90;;;;;;5063894;28;20033;-40
2022/09/07 07:10:44;;;;;;;7.68;5.10;;;18.30;99.90;;;;;;5064247;28;20064;-39
2022/09/07 07:13:10;;;;;;;14.13;7.10;;;18.30;99.90;;;;;;5065869;28;20052;-39
2022/09/07 07:15:35;;;;;;;7.90;5.80;;;18.40;99.90;;;;;;5062426;28;20341;-51
2022/09/07 07:18:01;;;;;;;8.88;6.03;;;18.40;99.90;;;;;;5064934;28;20032;-40
2022/09/07 07:20:28;;;;;;;11.85;5.93;;;18.40;99.90;;;;;;5063580;28;20064;-39
2022/09/07 07:22:53;;;;;;;13.23;6.30;;;18.40;99.90;;;;;;5057084;28;20016;-39
2022/09/07 07:25:19;;;;;;;10.05;6.20;;;18.40;99.90;;;;;;5059851;28;20078;-37
2022/09/07 07:27:45;;;;;;;11.73;5.97;;;18.40;99.90;;;;;;5064142;28;20024;-35
2022/09/07 07:30:13;;;;;;;9.48;6.13;;;18.50;99.90;;;;;;5063157;28;20067;-39
2022/09/07 07:32:39;;;;;;;10.77;5.95;;;18.50;99.90;;;;;;5064915;28;20028;-39
2022/09/07 07:35:17;;;;;;;10.90;5.80;;;18.60;99.90;;;;;;5065224;28;20429;-38
2022/09/07 07:37:43;;;;;;;11.30;6.82;;;18.60;99.90;;;;;;5069373;28;20025;-37
2022/09/07 07:40:11;;;;;;;12.15;6.82;;;18.60;99.90;;;;;;5068466;28;20346;-38
2022/09/07 07:42:38;;;;;;;8.18;6.05;;;18.70;99.90;;;;;;5065271;28;20488;-38
2022/09/07 07:45:06;;;;;;;10.98;6.57;;;18.80;99.90;;;;;;5065716;28;20032;-37
2022/09/07 07:47:31;;;;;;;8.05;6.82;;;18.90;99.90;;;;;;5063420;28;20107;-39
2022/09/07 07:49:57;;;;;;;11.45;7.57;;;18.90;99.90;;;;;;5061244;28;20056;-41
2022/09/07 07:52:23;;;;;;;13.73;7.93;;;18.90;99.90;;;;;;5062432;28;20025;-42
2022/09/07 07:54:49;;;;;;;11.98;8.23;;;18.90;99.90;;;;;;5065326;28;20034;-35
2022/09/07 07:57:18;;;;;;;12.68;8.15;;;18.90;99.90;;;;;;5065601;28;20468;-40
2022/09/07 07:59:43;;;;;;;10.95;8.38;;;19.00;99.90;;;;;;5061984;28;20580;-40
2022/09/07 08:04:58;;;;;;;13.63;8.43;;;19.10;99.90;;;;;;5061798;28;20043;-39
2022/09/07 08:07:23;;;;;;;13.40;7.85;;;19.20;99.90;;;;;;5059755;28;20032;-41
2022/09/07 08:09:49;;;;;;;10.95;7.32;;;19.20;99.90;;;;;;5063060;28;20025;-63
2022/09/07 08:12:17;;;;;;;15.35;8.48;;;19.20;99.90;;;;;;5059871;28;20867;-58
2022/09/07 08:14:45;;;;;;;11.85;8.23;;;19.30;99.90;;;;;;5059573;28;20480;-34
2022/09/07 08:17:13;;;;;;;12.27;8.52;;;19.40;99.90;;;;;;5065942;28;20058;-39
2022/09/07 08:19:39;;;;;;;13.43;8.30;;;19.50;99.90;;;;;;5063551;28;20036;-38
2022/09/07 08:22:06;;;;;;;14.85;8.98;;;19.70;99.90;;;;;;5056981;28;20043;-40
2022/09/07 08:24:32;;;;;;;11.23;6.40;;;19.80;99.90;;;;;;5063997;28;20036;-38
2022/09/07 08:26:58;;;;;;;10.13;7.13;;;19.80;99.90;;;;;;5064453;28;20484;-38
2022/09/07 08:29:23;;;;;;;12.95;8.48;;;19.80;99.90;;;;;;5065173;28;20031;-38
2022/09/07 08:31:49;;;;;;;13.23;7.90;;;19.90;99.90;;;;;;5047439;28;20307;-39
2022/09/07 08:34:15;;;;;;;10.82;7.43;;;20.00;99.90;;;;;;5050644;28;20072;-37
2022/09/07 08:36:41;;;;;;;11.88;8.23;;;20.00;99.90;;;;;;5051412;28;20398;-39
2022/09/07 08:39:07;;;;;;;10.88;7.53;;;20.10;99.90;;;;;;5065741;28;20017;-38
2022/09/07 08:41:57;;;;;;;11.98;8.90;;;20.30;99.90;;;;;;5062433;28;20523;-38
2022/09/07 08:44:37;;;;;;;16.50;8.55;;;20.40;99.90;;;;;;5062831;28;20530;-39
2022/09/07 08:47:28;;;;;;;11.05;8.02;;;20.40;99.90;;;;;;5063399;28;20028;-40
2022/09/07 08:49:57;;;;;;;11.95;8.50;;;20.50;99.90;;;;;;5058178;28;20037;-39
2022/09/07 08:52:47;;;;;;;10.30;7.75;;;20.50;99.90;;;;;;5064780;28;20037;-37
2022/09/07 08:55:36;;;;;;;9.88;8.10;;;20.60;99.90;;;;;;5062264;28;20365;-41
2022/09/07 08:58:06;;;;;;;12.57;8.70;;;20.60;99.90;;;;;;5062699;28;20493;-37
2022/09/07 09:00:32;;;;;;;19.02;9.32;;;20.60;99.90;;;;;;5064787;28;20035;-43
2022/09/07 09:02:58;;;;;;;17.38;9.90;;;20.70;99.90;;;;;;5063127;28;20488;-38
2022/09/07 09:05:46;;;;;;;13.27;9.15;;;20.90;99.90;;;;;;5059746;28;20017;-35
2022/09/07 09:08:20;;;;;;;16.63;9.38;;;21.00;99.90;;;;;;5061261;28;20032;-44
2022/09/07 09:11:04;;;;;;;10.43;8.45;;;21.10;99.90;;;;;;5055645;28;20557;-34
2022/09/07 09:13:53;;;;;;;9.80;8.68;;;21.20;99.90;;;;;;5055569;28;20021;-60
2022/09/07 09:16:44;;;;;;;12.88;10.05;;;21.20;99.90;;;;;;5062456;28;20032;-38
2022/09/07 09:19:34;;;;;;;10.00;8.18;;;21.30;99.90;;;;;;5059849;28;20048;-37
2022/09/07 09:22:14;;;;;;;9.70;8.30;;;21.30;99.90;;;;;;5057535;28;20032;-31
2022/09/07 09:25:01;;;;;;;13.52;8.40;;;21.40;99.90;;;;;;5059987;28;20927;-36
2022/09/07 09:27:26;;;;;;;13.98;8.48;;;21.40;99.90;;;;;;5054776;28;21559;-39
2022/09/07 09:29:52;;;;;;;10.65;7.38;;;21.50;99.90;;;;;;5061574;28;20028;-36
2022/09/07 09:32:40;;;;;;;12.73;7.00;;;21.60;99.90;;;;;;5057100;28;20411;-32
2022/09/07 09:37:41;;;;;;;8.00;5.80;;;21.70;99.90;;;;;;5080268;28;20835;-36
2022/09/07 09:40:35;;;;;;;14.68;5.95;;;21.60;99.90;;;;;;5059612;28;20029;-38
2022/09/07 09:43:16;;;;;;;6.95;5.15;;;21.80;99.90;;;;;;5058450;28;20485;-39
2022/09/07 09:45:44;;;;;;;8.55;4.82;;;22.00;99.90;;;;;;5062833;28;20027;-32
2022/09/07 09:48:19;;;;;;;11.20;5.30;;;22.10;99.90;;;;;;5062128;28;20048;-34
2022/09/07 09:50:50;;;;;;;11.40;6.30;;;22.10;99.90;;;;;;5055622;28;20016;-36
2022/09/07 09:53:22;;;;;;;10.43;6.25;;;22.10;99.90;;;;;;5062102;28;20094;-40
2022/09/07 09:55:51;;;;;;;7.43;6.25;;;22.10;99.90;;;;;;5065728;28;20496;-40
2022/09/07 10:01:22;;;;;;;10.82;6.35;;;22.40;99.90;;;;;;5057940;28;20527;-37
2022/09/07 10:03:48;;;;;;;8.45;5.03;;;22.60;99.90;;;;;;5084151;28;20588;-39
2022/09/07 10:06:16;;;;;;;6.60;5.25;;;22.70;99.90;;;;;;5068087;28;20032;-40
2022/09/07 10:09:00;;;;;;;5.32;3.95;;;22.90;99.90;;;;;;5061099;28;20547;-29
2022/09/07 10:11:59;;;;;;;5.80;3.72;;;23.20;99.90;;;;;;5065113;28;20029;-38
2022/09/07 10:14:30;;;;;;;10.05;4.30;;;23.30;99.90;;;;;;5037164;28;20103;-35
2022/09/07 10:16:58;;;;;;;5.97;3.22;;;23.20;99.90;;;;;;5058158;28;20558;-35
2022/09/07 10:19:34;;;;;;;;;;;23.10;99.90;;;;;;5068202;28;20119;-34
2022/09/07 10:22:02;;;;;;;5.28;2.88;;;23.10;99.90;;;;;;5064166;28;20280;-31
2022/09/07 10:24:35;;;;;;;6.72;3.20;;;23.20;99.90;;;;;;5074046;28;20021;-33
2022/09/07 10:27:39;;;;;;;5.03;3.50;;;23.30;99.90;;;;;;5066416;28;20044;-33
2022/09/07 10:30:23;;;;;;;8.00;2.55;;;23.40;99.90;;;;;;5063701;28;20634;-39
2022/09/07 10:33:18;;;;;;;6.85;2.13;;;23.60;99.90;;;;;;5063462;28;20551;-35
2022/09/07 10:36:05;;;;;;;2.75;1.85;;;23.60;99.90;;;;;;5047904;28;20509;-35
2022/09/07 10:38:34;;;;;;;;;;;23.60;99.90;;;;;;5046710;28;20028;-35
2022/09/07 10:41:06;;;;;;;2.25;2.05;;;23.50;99.90;;;;;;5063613;28;20277;-39
2022/09/07 10:43:50;;;;;;;7.65;2.22;;;23.30;99.90;;;;;;5043740;28;20055;-36
2022/09/07 10:46:28;;;;;;;8.82;2.25;;;23.20;99.90;;;;;;5047878;28;20041;-32
2022/09/07 10:48:53;;;;;;;;;;;23.30;99.90;;;;;;5026655;28;20029;-32
2022/09/07 10:51:29;;;;;;;9.60;1.67;;;23.40;99.90;;;;;;5028491;28;19927;-40
2022/09/07 10:57:28;;;;;;;8.93;1.63;;;23.70;99.90;;;;;;5024458;28;20111;-40
2022/09/07 11:00:17;;;;;;;5.57;1.60;;;23.80;99.90;;;;;;5029799;28;20276;-30
2022/09/07 11:03:16;;;;;;;3.45;1.75;;;23.80;99.90;;;;;;5026399;28;20568;-36
2022/09/07 11:05:53;;;;;;;2.67;1.15;;;23.90;99.90;;;;;;5035424;28;20021;-45
2022/09/07 11:11:31;;;;;;;3.80;1.42;;;23.90;99.90;;;;;;5026746;28;20280;-37
2022/09/07 11:14:03;;;;;;;5.88;2.17;;;23.80;99.90;;;;;;5031350;28;20033;-34
2022/09/07 11:16:33;;;;;;;6.50;1.40;;;23.70;99.90;;;;;;5031325;28;20067;-37
2022/09/07 11:19:26;;;;;;;5.68;1.60;;;23.60;99.90;;;;;;5013989;28;20652;-35
2022/09/07 11:22:14;;;;;;;3.97;1.30;;;23.70;99.90;;;;;;5019353;28;20110;-36
2022/09/07 11:25:00;;;;;;;9.13;1.80;;;23.80;99.90;;;;;;5013398;28;20046;-32
2022/09/07 11:27:55;;;;;;;1.27;0.80;;;24.00;99.90;;;;;;5026034;28;20038;-33
2022/09/07 11:30:30;;;;;;;3.47;1.20;;;24.40;99.90;;;;;;5015838;28;20048;-37
2022/09/07 11:33:05;;;;;;;4.97;1.63;;;24.80;99.90;;;;;;5040035;28;20029;-34
2022/09/07 11:35:53;;;;;;;5.35;1.25;;;25.00;99.90;;;;;;5030287;28;20410;-34
2022/09/07 11:38:33;;;;;;;9.70;2.08;;;24.80;99.90;;;;;;5029137;28;20065;-33
2022/09/07 11:41:05;;;;;;;4.40;1.38;;;24.70;99.90;;;;;;5033444;28;20045;-38
2022/09/07 11:43:37;;;;;;;6.68;1.27;;;24.40;99.90;;;;;;5033639;28;20155;-37
2022/09/07 11:46:20;;;;;;;3.00;1.17;;;24.10;99.90;;;;;;5040945;28;20378;-32
2022/09/07 11:48:54;;;;;;;3.92;1.55;;;24.00;99.90;;;;;;5028353;28;20053;-34
2022/09/07 11:51:35;;;;;;;10.43;3.00;;;24.20;99.90;;;;;;5024575;28;20042;-34
2022/09/07 11:54:19;;;;;;;3.08;1.42;;;24.50;99.90;;;;;;5030625;28;20025;-33
2022/09/07 11:56:51;;;;;;;5.47;2.70;;;24.80;99.90;;;;;;5035029;28;20445;-37
2022/09/07 12:00:00;;;;;;;5.28;1.88;;;25.20;99.90;;;;;;5024578;28;20029;-38
2022/09/07 12:02:45;;;;;;;6.93;1.70;;;25.40;99.90;;;;;;5012324;28;20438;-33
2022/09/07 12:05:29;;;;;;;6.55;1.35;;;25.20;99.90;;;;;;5032178;28;20072;-36
2022/09/07 12:08:28;;;;;;;7.50;1.92;;;25.00;99.90;;;;;;5034105;28;20424;-36
2022/09/07 12:11:10;;;;;;;6.30;2.10;;;25.30;99.90;;;;;;5023396;28;20053;-34
2022/09/07 12:13:53;;;;;;;7.55;1.70;;;25.70;99.90;;;;;;5023070;28;20044;-36
2022/09/07 12:16:50;;;;;;;4.78;1.27;;;25.70;99.90;;;;;;5027862;28;20065;-37
2022/09/07 12:19:20;;;;;;;7.22;1.70;;;25.70;99.90;;;;;;5031807;28;20025;-32
2022/09/07 12:21:51;;;;;;;5.43;1.67;;;25.80;99.90;;;;;;5040151;28;20120;-35
2022/09/07 12:24:39;;;;;;;10.02;1.92;;;25.90;99.90;;;;;;5036703;28;20063;-39
2022/09/07 12:27:08;;;;;;;5.82;1.27;;;25.80;99.90;;;;;;5027605;28;20502;-36
2022/09/07 12:29:34;;;;;;;3.53;1.45;;;25.80;99.90;;;;;;5029850;28;20473;-31
2022/09/07 12:32:02;;;;;;;10.85;1.23;;;25.80;99.90;;;;;;5031780;28;20036;-38
2022/09/07 12:34:30;;;;;;;5.93;1.60;;;25.70;99.90;;;;;;5028360;28;20078;-34
2022/09/07 12:37:01;;;;;;;2.47;1.00;;;25.80;99.90;;;;;;5033263;28;20107;-32
2022/09/07 12:39:31;;;;;;;4.32;1.23;;;25.80;99.90;;;;;;5033636;28;20236;-35
2022/09/07 12:42:08;;;;;;;3.15;1.48;;;26.00;99.90;;;;;;5023990;28;20083;-40
2022/09/07 12:44:34;;;;;;;;;;;26.10;99.90;;;;;;5023383;28;20025;-30
2022/09/07 12:47:21;;;;;;;2.47;1.25;;;26.10;99.90;;;;;;5024504;28;19905;-33
2022/09/07 12:49:52;;;;;;;1.50;1.20;;;26.20;99.90;;;;;;5023223;28;20044;-34
2022/09/07 12:53:09;;;;;;;4.75;1.23;;;26.30;99.90;;;;;;5020686;28;20033;-40
2022/09/07 12:56:02;;;;;;;4.97;1.88;;;26.30;99.90;;;;;;5013875;28;20028;-41
2022/09/07 12:58:57;;;;;;;5.85;1.77;;;26.30;99.90;;;;;;5020149;28;20524;-35
2022/09/07 13:01:58;;;;;;;4.68;1.20;;;26.40;99.90;;;;;;5011949;28;20079;-32
2022/09/07 13:04:58;;;;;;;4.05;1.67;;;26.60;99.90;;;;;;5011187;28;20021;-33
2022/09/07 13:07:24;;;;;;;1.55;1.02;;;26.70;99.70;;;;;;5013375;28;20033;-38
2022/09/07 13:09:56;;;;;;;1.42;1.20;;;26.70;99.90;;;;;;5009965;28;20382;-36
2022/09/07 13:12:29;;;;;;;4.28;1.60;;;26.40;99.80;;;;;;5009407;28;20033;-38
2022/09/07 13:14:57;;;;;;;2.40;1.38;;;26.00;99.90;;;;;;5016460;28;20624;-34
2022/09/07 13:17:35;;;;;;;2.65;0.90;;;25.90;99.90;;;;;;5016388;28;20381;-38
2022/09/07 13:20:00;;;;;;;1.45;1.35;;;26.00;99.90;;;;;;5018402;28;20064;-36
2022/09/07 13:22:29;;;;;;;3.75;1.08;;;26.20;99.90;;;;;;5026005;28;20121;-33
2022/09/07 13:25:00;;;;;;;4.30;0.93;;;26.40;99.90;;;;;;5024151;28;20046;-32
2022/09/07 13:27:36;;;;;;;3.75;1.15;;;26.50;99.90;;;;;;5022267;28;20052;-35
2022/09/07 13:30:21;;;;;;;4.10;1.15;;;26.50;99.50;;;;;;5030472;28;20029;-35